sensor_id;sensor_type;location;lat;lon;timestamp;P1;P2;P0
74432;PMS7003;62865;53.146;23.172;2023-02-15T00:01:35;15.8;11.4;7.6
74432;PMS7003;62865;53.146;23.172;2023-02-15T00:06:23;11.4;9.6;6.8
74432;PMS7003;62865;53.146;23.172;2023-02-15T00:11:14;13.2;10.2;6.6
74432;PMS7003;62865;53.146;23.172;2023-02-15T00:16:13;11.2;9;6
74432;PMS7003;62865;53.146;23.172;2023-02-15T00:21:23;12.8;10;7
74432;PMS7003;62865;53.146;23.172;2023-02-15T00:26:13;13.8;11;7.8
74432;PMS7003;62865;53.146;23.172;2023-02-15T00:31:19;11.8;10;6
74432;PMS7003;62865;53.146;23.172;2023-02-15T00:36:23;12.4;10.2;6
74432;PMS7003;62865;53.146;23.172;2023-02-15T00:41:13;13.6;11.4;6.4
74432;PMS7003;62865;53.146;23.172;2023-02-15T00:46:35;12.2;9;5.8
74432;PMS7003;62865;53.146;23.172;2023-02-15T00:51:13;11.6;10.4;6.4
74432;PMS7003;62865;53.146;23.172;2023-02-15T00:56:13;13;10.8;6.2
74432;PMS7003;62865;53.146;23.172;2023-02-15T01:01:23;16.4;12.8;7.4
74432;PMS7003;62865;53.146;23.172;2023-02-15T01:06:25;13.2;11.4;6.6
74432;PMS7003;62865;53.146;23.172;2023-02-15T01:11:23;16.4;12.6;8
74432;PMS7003;62865;53.146;23.172;2023-02-15T01:16:26;17.2;14;8.8
74432;PMS7003;62865;53.146;23.172;2023-02-15T01:21:14;16.6;14.2;9.2
74432;PMS7003;62865;53.146;23.172;2023-02-15T01:26:25;16.8;12.6;8.2
74432;PMS7003;62865;53.146;23.172;2023-02-15T01:31:14;17.6;15;9.6
74432;PMS7003;62865;53.146;23.172;2023-02-15T01:36:13;17.8;14.6;9.2
74432;PMS7003;62865;53.146;23.172;2023-02-15T01:41:25;17.2;15.2;9.2
74432;PMS7003;62865;53.146;23.172;2023-02-15T01:46:24;18.2;16.2;9.8
74432;PMS7003;62865;53.146;23.172;2023-02-15T01:51:32;20.2;16.6;9.6
74432;PMS7003;62865;53.146;23.172;2023-02-15T01:56:43;24.4;18.8;10.6
74432;PMS7003;62865;53.146;23.172;2023-02-15T02:01:35;25.8;20.6;12.2
74432;PMS7003;62865;53.146;23.172;2023-02-15T02:06:24;27.6;20;11.4
74432;PMS7003;62865;53.146;23.172;2023-02-15T02:11:23;20.4;17.6;11.2
74432;PMS7003;62865;53.146;23.172;2023-02-15T02:16:22;25.6;20.2;11.6
74432;PMS7003;62865;53.146;23.172;2023-02-15T02:21:19;23.8;18.6;10.2
74432;PMS7003;62865;53.146;23.172;2023-02-15T02:26:42;22.6;18.2;11.6
74432;PMS7003;62865;53.146;23.172;2023-02-15T02:31:24;24;18.2;10.6
74432;PMS7003;62865;53.146;23.172;2023-02-15T02:36:39;24.4;20.4;12
74432;PMS7003;62865;53.146;23.172;2023-02-15T02:41:16;23.2;19.6;12
74432;PMS7003;62865;53.146;23.172;2023-02-15T02:46:26;24.2;21;12
74432;PMS7003;62865;53.146;23.172;2023-02-15T02:51:23;20.4;17.8;10.8
74432;PMS7003;62865;53.146;23.172;2023-02-15T02:56:26;23.8;20.6;10.6
74432;PMS7003;62865;53.146;23.172;2023-02-15T03:01:15;23.8;19.4;12.2
74432;PMS7003;62865;53.146;23.172;2023-02-15T03:06:14;23;20.2;11.4
74432;PMS7003;62865;53.146;23.172;2023-02-15T03:11:13;29.4;23.6;12.4
74432;PMS7003;62865;53.146;23.172;2023-02-15T03:16:36;27.8;23.8;13.4
74432;PMS7003;62865;53.146;23.172;2023-02-15T03:21:29;26.4;22;13.6
74432;PMS7003;62865;53.146;23.172;2023-02-15T03:26:21;29.6;22.6;13.6
74432;PMS7003;62865;53.146;23.172;2023-02-15T03:31:26;28.4;23.4;13
74432;PMS7003;62865;53.146;23.172;2023-02-15T03:36:26;24.4;20.8;11.2
74432;PMS7003;62865;53.146;23.172;2023-02-15T03:41:13;23.2;18;10.4
74432;PMS7003;62865;53.146;23.172;2023-02-15T03:46:24;22.6;19;10.4
74432;PMS7003;62865;53.146;23.172;2023-02-15T03:51:25;24.8;19.2;11.4
74432;PMS7003;62865;53.146;23.172;2023-02-15T03:56:13;25.2;19.4;11
74432;PMS7003;62865;53.146;23.172;2023-02-15T04:01:15;26.8;21.6;11.8
74432;PMS7003;62865;53.146;23.172;2023-02-15T04:06:13;23.5;19.5;11.8
74432;PMS7003;62865;53.146;23.172;2023-02-15T04:11:13;25.8;21.8;11.8
74432;PMS7003;62865;53.146;23.172;2023-02-15T04:16:25;25;20.8;12.4
74432;PMS7003;62865;53.146;23.172;2023-02-15T04:21:31;21.2;17;10.2
74432;PMS7003;62865;53.146;23.172;2023-02-15T04:26:13;20;16.4;10.8
74432;PMS7003;62865;53.146;23.172;2023-02-15T04:31:35;18.8;15;9.4
74432;PMS7003;62865;53.146;23.172;2023-02-15T04:36:41;15.8;14;7.2
74432;PMS7003;62865;53.146;23.172;2023-02-15T04:41:13;18.4;13.2;8
74432;PMS7003;62865;53.146;23.172;2023-02-15T04:46:25;16.6;12.2;6.8
74432;PMS7003;62865;53.146;23.172;2023-02-15T04:51:25;14.6;11.6;7.6
74432;PMS7003;62865;53.146;23.172;2023-02-15T04:56:35;13.8;11;6.2
74432;PMS7003;62865;53.146;23.172;2023-02-15T05:01:13;16.4;12.6;7
74432;PMS7003;62865;53.146;23.172;2023-02-15T05:06:13;17.4;12.4;7.6
74432;PMS7003;62865;53.146;23.172;2023-02-15T05:11:33;15.4;13.2;8
74432;PMS7003;62865;53.146;23.172;2023-02-15T05:16:13;15.4;11.4;6.4
74432;PMS7003;62865;53.146;23.172;2023-02-15T05:21:23;17.2;13.6;7.8
74432;PMS7003;62865;53.146;23.172;2023-02-15T05:26:41;16.6;14;8.4
74432;PMS7003;62865;53.146;23.172;2023-02-15T05:31:35;17;13.8;7.8
74432;PMS7003;62865;53.146;23.172;2023-02-15T05:36:35;14.6;12.2;6.4
74432;PMS7003;62865;53.146;23.172;2023-02-15T05:41:13;16;12.8;7.4
74432;PMS7003;62865;53.146;23.172;2023-02-15T05:46:25;14.4;11.6;6.6
74432;PMS7003;62865;53.146;23.172;2023-02-15T05:51:13;13;11.2;6.2
74432;PMS7003;62865;53.146;23.172;2023-02-15T05:56:13;14;11;7
74432;PMS7003;62865;53.146;23.172;2023-02-15T06:01:31;15.8;13;7.2
74432;PMS7003;62865;53.146;23.172;2023-02-15T06:06:37;19;13.4;7.4
74432;PMS7003;62865;53.146;23.172;2023-02-15T06:11:13;15.4;11.8;7.6
74432;PMS7003;62865;53.146;23.172;2023-02-15T06:16:13;14;12.2;7
74432;PMS7003;62865;53.146;23.172;2023-02-15T06:21:15;15.6;12.8;7
74432;PMS7003;62865;53.146;23.172;2023-02-15T06:26:15;17.6;14;7.8
74432;PMS7003;62865;53.146;23.172;2023-02-15T06:31:42;18.4;13.4;8.8
74432;PMS7003;62865;53.146;23.172;2023-02-15T06:36:13;17.4;14.4;8.4
74432;PMS7003;62865;53.146;23.172;2023-02-15T06:41:35;16.4;13.8;9
74432;PMS7003;62865;53.146;23.172;2023-02-15T06:46:21;18;14.4;8.4
74432;PMS7003;62865;53.146;23.172;2023-02-15T06:51:13;17;13.2;8.2
74432;PMS7003;62865;53.146;23.172;2023-02-15T06:56:13;17;13.6;8.8
74432;PMS7003;62865;53.146;23.172;2023-02-15T07:01:23;17.6;13.2;8
74432;PMS7003;62865;53.146;23.172;2023-02-15T07:06:23;16;14.4;8.8
74432;PMS7003;62865;53.146;23.172;2023-02-15T07:11:13;17;14.2;7.6
74432;PMS7003;62865;53.146;23.172;2023-02-15T07:16:35;16.2;12.4;6.6
74432;PMS7003;62865;53.146;23.172;2023-02-15T07:21:35;19.2;15.4;8.8
74432;PMS7003;62865;53.146;23.172;2023-02-15T07:26:25;16.8;14.2;9
74432;PMS7003;62865;53.146;23.172;2023-02-15T07:31:19;19;14.2;8.6
74432;PMS7003;62865;53.146;23.172;2023-02-15T07:36:25;19.2;15.8;9.4
74432;PMS7003;62865;53.146;23.172;2023-02-15T07:41:14;18.4;15.6;8.4
74432;PMS7003;62865;53.146;23.172;2023-02-15T07:46:14;18.4;14;8.4
74432;PMS7003;62865;53.146;23.172;2023-02-15T07:51:31;20;15.4;9.6
74432;PMS7003;62865;53.146;23.172;2023-02-15T07:56:23;15.8;13.4;8.8
74432;PMS7003;62865;53.146;23.172;2023-02-15T08:01:24;21.4;16.4;9.6
74432;PMS7003;62865;53.146;23.172;2023-02-15T08:06:34;16.4;14;7.4
74432;PMS7003;62865;53.146;23.172;2023-02-15T08:11:14;18.8;15.6;8.8
74432;PMS7003;62865;53.146;23.172;2023-02-15T08:16:13;18.8;15.2;8
74432;PMS7003;62865;53.146;23.172;2023-02-15T08:21:13;18.4;16;9.4
74432;PMS7003;62865;53.146;23.172;2023-02-15T08:26:33;17.6;14.6;8.8
74432;PMS7003;62865;53.146;23.172;2023-02-15T08:31:14;17.8;14.4;8.2
74432;PMS7003;62865;53.146;23.172;2023-02-15T08:36:14;20.4;16.6;9.6
74432;PMS7003;62865;53.146;23.172;2023-02-15T08:41:24;19.6;15.8;9
74432;PMS7003;62865;53.146;23.172;2023-02-15T08:46:15;17.2;13.2;7.6
74432;PMS7003;62865;53.146;23.172;2023-02-15T08:51:26;15.2;12.4;8
74432;PMS7003;62865;53.146;23.172;2023-02-15T08:56:32;14.2;11;7.4
74432;PMS7003;62865;53.146;23.172;2023-02-15T09:01:22;12.6;10;6.6
74432;PMS7003;62865;53.146;23.172;2023-02-15T09:06:13;14.2;12.8;8.6
74432;PMS7003;62865;53.146;23.172;2023-02-15T09:11:22;15.8;12.8;7.6
74432;PMS7003;62865;53.146;23.172;2023-02-15T09:16:13;12.5;10.3;6.3
74432;PMS7003;62865;53.146;23.172;2023-02-15T09:21:24;18.4;13.4;8
74432;PMS7003;62865;53.146;23.172;2023-02-15T09:26:22;16.2;14;9.2
74432;PMS7003;62865;53.146;23.172;2023-02-15T09:31:37;18.4;16.2;9.8
74432;PMS7003;62865;53.146;23.172;2023-02-15T09:36:24;22.6;16.8;9.6
74432;PMS7003;62865;53.146;23.172;2023-02-15T09:46:41;23.8;19.4;11.2
74432;PMS7003;62865;53.146;23.172;2023-02-15T09:51:19;21.4;19.2;11.6
74432;PMS7003;62865;53.146;23.172;2023-02-15T09:56:25;24;18.2;11.2
74432;PMS7003;62865;53.146;23.172;2023-02-15T10:01:27;21;16.8;10.2
74432;PMS7003;62865;53.146;23.172;2023-02-15T10:06:38;22;18.4;11
74432;PMS7003;62865;53.146;23.172;2023-02-15T10:11:14;19.4;15.6;10.4
74432;PMS7003;62865;53.146;23.172;2023-02-15T10:16:35;20.2;15;9.2
74432;PMS7003;62865;53.146;23.172;2023-02-15T10:21:17;21.4;17.6;9.6
74432;PMS7003;62865;53.146;23.172;2023-02-15T10:26:25;18.8;15.8;10
74432;PMS7003;62865;53.146;23.172;2023-02-15T10:31:17;18.6;14;10.4
74432;PMS7003;62865;53.146;23.172;2023-02-15T10:36:27;21.6;16;10.2
74432;PMS7003;62865;53.146;23.172;2023-02-15T10:41:28;18.6;16.8;10.8
74432;PMS7003;62865;53.146;23.172;2023-02-15T10:46:16;19.8;16.2;9.2
74432;PMS7003;62865;53.146;23.172;2023-02-15T10:51:25;20.8;15.2;9.2
74432;PMS7003;62865;53.146;23.172;2023-02-15T10:56:36;20;16.6;10.4
74432;PMS7003;62865;53.146;23.172;2023-02-15T11:01:34;22.6;18;11.2
74432;PMS7003;62865;53.146;23.172;2023-02-15T11:06:21;21.6;17.6;8.8
74432;PMS7003;62865;53.146;23.172;2023-02-15T11:11:15;22.4;15.2;9.6
74432;PMS7003;62865;53.146;23.172;2023-02-15T11:16:14;21.6;18.4;10.4
74432;PMS7003;62865;53.146;23.172;2023-02-15T11:21:14;22.6;18;12.2
74432;PMS7003;62865;53.146;23.172;2023-02-15T11:26:14;21.8;18.4;11.6
74432;PMS7003;62865;53.146;23.172;2023-02-15T11:31:15;24;19.4;11.6
74432;PMS7003;62865;53.146;23.172;2023-02-15T11:36:14;20.6;17;10.8
74432;PMS7003;62865;53.146;23.172;2023-02-15T11:41:27;23.2;19.8;10.8
74432;PMS7003;62865;53.146;23.172;2023-02-15T11:46:13;21.4;16.4;9.6
74432;PMS7003;62865;53.146;23.172;2023-02-15T11:51:14;22.4;18.4;11.6
74432;PMS7003;62865;53.146;23.172;2023-02-15T11:56:35;24.8;18;12.2
74432;PMS7003;62865;53.146;23.172;2023-02-15T12:01:14;21.6;18.2;10
74432;PMS7003;62865;53.146;23.172;2023-02-15T12:06:24;22;19;10.4
74432;PMS7003;62865;53.146;23.172;2023-02-15T12:11:35;23.6;19.2;11.6
74432;PMS7003;62865;53.146;23.172;2023-02-15T12:16:21;24;19.2;10.2
74432;PMS7003;62865;53.146;23.172;2023-02-15T12:21:14;22;18.6;11.8
74432;PMS7003;62865;53.146;23.172;2023-02-15T12:26:35;23.4;19.6;11.6
74432;PMS7003;62865;53.146;23.172;2023-02-15T12:31:19;26;19.6;11.6
74432;PMS7003;62865;53.146;23.172;2023-02-15T12:36:26;26;22.2;13.8
74432;PMS7003;62865;53.146;23.172;2023-02-15T12:41:22;27.4;21;12.2
74432;PMS7003;62865;53.146;23.172;2023-02-15T12:46:19;29;24.8;14.3
74432;PMS7003;62865;53.146;23.172;2023-02-15T12:51:14;31;25.6;14
74432;PMS7003;62865;53.146;23.172;2023-02-15T12:56:13;29;24.6;14.4
74432;PMS7003;62865;53.146;23.172;2023-02-15T13:01:24;32.8;26.2;15.6
74432;PMS7003;62865;53.146;23.172;2023-02-15T13:06:46;29.4;25.4;14.2
74432;PMS7003;62865;53.146;23.172;2023-02-15T13:11:45;30.8;26.6;14.6
74432;PMS7003;62865;53.146;23.172;2023-02-15T13:16:37;28.6;22.2;12.2
74432;PMS7003;62865;53.146;23.172;2023-02-15T13:21:36;29.8;23.8;12.2
74432;PMS7003;62865;53.146;23.172;2023-02-15T13:26:25;25.8;21.2;12.8
74432;PMS7003;62865;53.146;23.172;2023-02-15T13:31:45;29;23.4;13.2
74432;PMS7003;62865;53.146;23.172;2023-02-15T13:36:17;32.4;25.4;14.2
74432;PMS7003;62865;53.146;23.172;2023-02-15T13:41:16;29;23.2;12.6
74432;PMS7003;62865;53.146;23.172;2023-02-15T13:46:18;28.8;22.6;13.6
74432;PMS7003;62865;53.146;23.172;2023-02-15T13:52:03;32.2;26.6;15.8
74432;PMS7003;62865;53.146;23.172;2023-02-15T13:56:49;29.8;25;12.4
74432;PMS7003;62865;53.146;23.172;2023-02-15T14:01:36;29.2;23.8;13.4
74432;PMS7003;62865;53.146;23.172;2023-02-15T14:06:19;31.4;25.8;14.4
74432;PMS7003;62865;53.146;23.172;2023-02-15T14:11:38;29.8;23.4;13.4
74432;PMS7003;62865;53.146;23.172;2023-02-15T14:16:31;32.8;25;14.4
74432;PMS7003;62865;53.146;23.172;2023-02-15T14:21:16;36.4;25.8;15.2
74432;PMS7003;62865;53.146;23.172;2023-02-15T14:26:30;28.8;24.6;13.2
74432;PMS7003;62865;53.146;23.172;2023-02-15T14:31:25;28;22.4;12.8
74432;PMS7003;62865;53.146;23.172;2023-02-15T14:36:26;23.8;19.8;11.8
74432;PMS7003;62865;53.146;23.172;2023-02-15T14:41:31;25.2;20.2;12.4
74432;PMS7003;62865;53.146;23.172;2023-02-15T14:46:27;25.4;18.6;11.8
74432;PMS7003;62865;53.146;23.172;2023-02-15T14:52:19;22.8;19.4;11.2
74432;PMS7003;62865;53.146;23.172;2023-02-15T14:56:17;23;18.6;11.8
74432;PMS7003;62865;53.146;23.172;2023-02-15T15:01:26;23.8;18.6;11.8
74432;PMS7003;62865;53.146;23.172;2023-02-15T15:06:23;22;16.4;10
74432;PMS7003;62865;53.146;23.172;2023-02-15T15:11:39;19.8;15;9.4
74432;PMS7003;62865;53.146;23.172;2023-02-15T15:16:28;20.8;16.6;10
74432;PMS7003;62865;53.146;23.172;2023-02-15T15:22:02;17.8;15.4;8.8
74432;PMS7003;62865;53.146;23.172;2023-02-15T15:26:24;19;13.8;9.4
74432;PMS7003;62865;53.146;23.172;2023-02-15T15:31:34;19.4;14.4;8.6
74432;PMS7003;62865;53.146;23.172;2023-02-15T15:36:31;17.4;15.2;9.2
74432;PMS7003;62865;53.146;23.172;2023-02-15T15:41:28;14;11.6;7.4
74432;PMS7003;62865;53.146;23.172;2023-02-15T15:46:38;15.4;12;8
74432;PMS7003;62865;53.146;23.172;2023-02-15T15:51:37;16.6;13.8;7.6
74432;PMS7003;62865;53.146;23.172;2023-02-15T15:56:37;18.8;14.8;9.6
74432;PMS7003;62865;53.146;23.172;2023-02-15T16:01:37;19.4;15;9
74432;PMS7003;62865;53.146;23.172;2023-02-15T16:06:32;17;14.4;8.2
74432;PMS7003;62865;53.146;23.172;2023-02-15T16:11:16;16.6;14.2;7.4
74432;PMS7003;62865;53.146;23.172;2023-02-15T16:16:19;18.2;12.2;7
74432;PMS7003;62865;53.146;23.172;2023-02-15T16:21:17;18.8;13.8;8
74432;PMS7003;62865;53.146;23.172;2023-02-15T16:26:33;15.6;12.4;7.6
74432;PMS7003;62865;53.146;23.172;2023-02-15T16:31:25;18.2;15;8.4
74432;PMS7003;62865;53.146;23.172;2023-02-15T16:36:26;20.8;16.4;9.6
74432;PMS7003;62865;53.146;23.172;2023-02-15T16:41:16;19.6;14.4;9.2
74432;PMS7003;62865;53.146;23.172;2023-02-15T16:46:16;20.4;17;9.6
74432;PMS7003;62865;53.146;23.172;2023-02-15T16:51:18;20.2;16;10
74432;PMS7003;62865;53.146;23.172;2023-02-15T16:56:15;21.4;17.8;10
74432;PMS7003;62865;53.146;23.172;2023-02-15T17:01:24;18.6;15.4;8.8
74432;PMS7003;62865;53.146;23.172;2023-02-15T17:06:24;17.6;14.6;7.8
74432;PMS7003;62865;53.146;23.172;2023-02-15T17:11:32;17;13;8.5
74432;PMS7003;62865;53.146;23.172;2023-02-15T17:16:22;21.2;16.2;9.6
74432;PMS7003;62865;53.146;23.172;2023-02-15T17:21:26;16.2;12.8;8.6
74432;PMS7003;62865;53.146;23.172;2023-02-15T17:26:17;16.2;13.2;9.6
74432;PMS7003;62865;53.146;23.172;2023-02-15T17:31:13;20.2;15;10
74432;PMS7003;62865;53.146;23.172;2023-02-15T17:36:28;18.4;14.4;9.8
74432;PMS7003;62865;53.146;23.172;2023-02-15T17:41:15;14.4;12.4;8.4
74432;PMS7003;62865;53.146;23.172;2023-02-15T17:46:37;14;12;7.8
74432;PMS7003;62865;53.146;23.172;2023-02-15T17:51:37;18.4;13.2;7.8
74432;PMS7003;62865;53.146;23.172;2023-02-15T17:56:13;16;13.6;7.6
74432;PMS7003;62865;53.146;23.172;2023-02-15T18:01:24;15.4;12.2;7.4
74432;PMS7003;62865;53.146;23.172;2023-02-15T18:06:25;15.2;11.8;7.4
74432;PMS7003;62865;53.146;23.172;2023-02-15T18:11:15;12.6;9.8;6
74432;PMS7003;62865;53.146;23.172;2023-02-15T18:16:16;11.4;9;5.8
74432;PMS7003;62865;53.146;23.172;2023-02-15T18:21:37;17;12.4;7.8
74432;PMS7003;62865;53.146;23.172;2023-02-15T18:26:26;11.4;9.8;6.2
74432;PMS7003;62865;53.146;23.172;2023-02-15T18:31:25;15.2;10.4;6.6
74432;PMS7003;62865;53.146;23.172;2023-02-15T18:36:25;10.4;8.2;5.8
74432;PMS7003;62865;53.146;23.172;2023-02-15T18:41:33;12.4;9.8;5.6
74432;PMS7003;62865;53.146;23.172;2023-02-15T18:46:35;15;10;5.8
74432;PMS7003;62865;53.146;23.172;2023-02-15T18:51:16;14.2;10.4;6.6
74432;PMS7003;62865;53.146;23.172;2023-02-15T18:56:16;12.4;10.8;6.2
74432;PMS7003;62865;53.146;23.172;2023-02-15T19:01:33;17.8;12.6;8.2
74432;PMS7003;62865;53.146;23.172;2023-02-15T19:06:14;15.4;12.6;7.4
74432;PMS7003;62865;53.146;23.172;2023-02-15T19:11:16;12.6;10.8;6.2
74432;PMS7003;62865;53.146;23.172;2023-02-15T19:16:22;15;12.4;7.6
74432;PMS7003;62865;53.146;23.172;2023-02-15T19:21:15;15.6;13.2;7.8
74432;PMS7003;62865;53.146;23.172;2023-02-15T19:26:15;15;11;7.6
74432;PMS7003;62865;53.146;23.172;2023-02-15T19:31:23;15.4;11.6;6.6
74432;PMS7003;62865;53.146;23.172;2023-02-15T19:36:16;16;13.8;7.4
74432;PMS7003;62865;53.146;23.172;2023-02-15T19:41:35;13;11.8;6.6
74432;PMS7003;62865;53.146;23.172;2023-02-15T19:46:15;16.4;13.4;7.6
74432;PMS7003;62865;53.146;23.172;2023-02-15T19:51:23;18.6;14.4;7.8
74432;PMS7003;62865;53.146;23.172;2023-02-15T19:56:15;16.8;11.8;8.2
74432;PMS7003;62865;53.146;23.172;2023-02-15T20:01:33;18.2;13.6;8
74432;PMS7003;62865;53.146;23.172;2023-02-15T20:06:48;17.4;13;7.4
74432;PMS7003;62865;53.146;23.172;2023-02-15T20:11:39;20.2;16;9.2
74432;PMS7003;62865;53.146;23.172;2023-02-15T20:16:25;18.2;16;10.2
74432;PMS7003;62865;53.146;23.172;2023-02-15T20:21:15;17.8;15;9
74432;PMS7003;62865;53.146;23.172;2023-02-15T20:26:25;18.4;15;9
74432;PMS7003;62865;53.146;23.172;2023-02-15T20:31:43;19.6;14;7
74432;PMS7003;62865;53.146;23.172;2023-02-15T20:36:25;25;19;9.6
74432;PMS7003;62865;53.146;23.172;2023-02-15T20:41:25;21.4;16;9
74432;PMS7003;62865;53.146;23.172;2023-02-15T20:46:25;20.2;15.6;10
74432;PMS7003;62865;53.146;23.172;2023-02-15T20:51:27;23.2;17.4;10
74432;PMS7003;62865;53.146;23.172;2023-02-15T20:56:16;22;17.6;9.2
74432;PMS7003;62865;53.146;23.172;2023-02-15T21:01:16;23.2;19.6;10.4
74432;PMS7003;62865;53.146;23.172;2023-02-15T21:06:16;25.2;20.8;11.6
74432;PMS7003;62865;53.146;23.172;2023-02-15T21:11:17;20.2;17.2;9.8
74432;PMS7003;62865;53.146;23.172;2023-02-15T21:16:27;25;20.4;11.4
74432;PMS7003;62865;53.146;23.172;2023-02-15T21:21:17;23.8;19.2;9.8
74432;PMS7003;62865;53.146;23.172;2023-02-15T21:27:02;22.2;18;9.2
74432;PMS7003;62865;53.146;23.172;2023-02-15T21:31:16;23.4;17.6;9.8
74432;PMS7003;62865;53.146;23.172;2023-02-15T21:36:16;21.2;17.4;9.6
74432;PMS7003;62865;53.146;23.172;2023-02-15T21:41:25;21;17.6;10
74432;PMS7003;62865;53.146;23.172;2023-02-15T21:46:16;20.4;15.4;8.6
74432;PMS7003;62865;53.146;23.172;2023-02-15T21:51:15;22.2;17.4;10
74432;PMS7003;62865;53.146;23.172;2023-02-15T21:56:38;24.6;17.4;9.2
74432;PMS7003;62865;53.146;23.172;2023-02-15T22:01:26;26.2;19.4;11.4
74432;PMS7003;62865;53.146;23.172;2023-02-15T22:06:33;22.8;18;10.6
74432;PMS7003;62865;53.146;23.172;2023-02-15T22:11:16;25.4;21.4;10.6
74432;PMS7003;62865;53.146;23.172;2023-02-15T22:16:59;24.4;18.4;10.8
74432;PMS7003;62865;53.146;23.172;2023-02-15T22:21:35;19.8;17.8;10.3
74432;PMS7003;62865;53.146;23.172;2023-02-15T22:26:39;25;19.8;11.8
74432;PMS7003;62865;53.146;23.172;2023-02-15T22:31:17;27.6;20.8;11.4
74432;PMS7003;62865;53.146;23.172;2023-02-15T22:36:19;27.6;22.2;11.8
74432;PMS7003;62865;53.146;23.172;2023-02-15T22:41:24;35;28.6;15.4
74432;PMS7003;62865;53.146;23.172;2023-02-15T22:46:16;37.2;29.8;16
74432;PMS7003;62865;53.146;23.172;2023-02-15T22:51:37;38.8;30.4;15.6
74432;PMS7003;62865;53.146;23.172;2023-02-15T22:56:16;39;31.8;17.2
74432;PMS7003;62865;53.146;23.172;2023-02-15T23:01:37;41.4;33.6;18
74432;PMS7003;62865;53.146;23.172;2023-02-15T23:06:13;46;36;18.2
74432;PMS7003;62865;53.146;23.172;2023-02-15T23:11:37;45.8;35.8;20.6
74432;PMS7003;62865;53.146;23.172;2023-02-15T23:16:16;47.4;38.6;20.4
74432;PMS7003;62865;53.146;23.172;2023-02-15T23:21:17;48.4;37.6;19.8
74432;PMS7003;62865;53.146;23.172;2023-02-15T23:26:26;46.8;37;20.4
74432;PMS7003;62865;53.146;23.172;2023-02-15T23:31:18;49.2;38.6;21.2
74432;PMS7003;62865;53.146;23.172;2023-02-15T23:36:25;43.6;36.4;18.4
74432;PMS7003;62865;53.146;23.172;2023-02-15T23:41:37;44.6;36.2;20
74432;PMS7003;62865;53.146;23.172;2023-02-15T23:46:28;39.6;33.6;19.2
74432;PMS7003;62865;53.146;23.172;2023-02-15T23:51:37;45.4;36;19.8
74432;PMS7003;62865;53.146;23.172;2023-02-15T23:56:25;44.6;35.6;19.2
